Time;durP1;ratioP1;P1;durP2;ratioP2;P2;SDS_P1;SDS_P2;PMS_P1;PMS_P2;Temp;Humidity;BMP_temperature;BMP_pressure;BME280_temperature;BME280_humidity;BME280_pressure;Samples;Min_cycle;Max_cycle;Signal;HPM_P1;HPM_P2
2022/05/24 00:00:28;;;;;;;16.38;12.13;;;16.90;99.70;;;;;;5053689;28;20025;-73
2022/05/24 00:02:54;;;;;;;14.02;12.10;;;16.90;99.70;;;;;;5053051;28;20090;-74
2022/05/24 00:05:21;;;;;;;16.50;12.70;;;16.90;99.70;;;;;;5053666;28;20518;-73
2022/05/24 00:07:47;;;;;;;18.65;12.90;;;16.80;99.80;;;;;;5053805;28;20033;-74
2022/05/24 00:10:21;;;;;;;15.02;12.63;;;16.90;99.90;;;;;;5053468;28;20028;-73
2022/05/24 00:12:47;;;;;;;15.00;12.70;;;16.80;99.90;;;;;;5053309;28;20366;-73
2022/05/24 00:15:28;;;;;;;15.35;12.43;;;16.80;99.90;;;;;;5053518;28;20017;-73
2022/05/24 00:17:57;;;;;;;16.65;12.57;;;16.90;99.90;;;;;;5053629;28;20094;-74
2022/05/24 00:20:26;;;;;;;17.20;14.18;;;16.90;99.90;;;;;;5053560;28;20499;-73
2022/05/24 00:22:53;;;;;;;19.33;14.65;;;16.90;99.90;;;;;;5053213;28;20029;-73
2022/05/24 00:25:19;;;;;;;16.85;13.73;;;16.90;99.90;;;;;;5053588;28;20117;-73
2022/05/24 00:27:46;;;;;;;15.57;13.95;;;16.90;99.90;;;;;;5053167;28;20038;-73
2022/05/24 00:30:12;;;;;;;18.98;15.27;;;16.90;99.90;;;;;;5053491;28;20021;-74
2022/05/24 00:32:38;;;;;;;19.30;16.02;;;16.90;99.90;;;;;;5053213;28;20025;-74
2022/05/24 00:35:04;;;;;;;20.08;16.63;;;16.80;99.90;;;;;;5053183;28;20017;-74
2022/05/24 00:37:31;;;;;;;21.63;17.00;;;16.80;99.90;;;;;;5053149;28;20025;-74
2022/05/24 00:39:57;;;;;;;21.05;18.42;;;16.70;99.90;;;;;;5053071;28;20025;-74
2022/05/24 00:42:28;;;;;;;22.30;19.88;;;16.80;99.90;;;;;;5053055;28;20070;-74
2022/05/24 00:45:10;;;;;;;23.05;19.60;;;16.70;99.90;;;;;;5052786;28;20484;-74
2022/05/24 00:47:46;;;;;;;22.48;20.08;;;16.70;99.90;;;;;;5052945;28;20415;-74
2022/05/24 00:50:22;;;;;;;25.05;20.00;;;16.70;99.90;;;;;;5053333;28;20021;-74
2022/05/24 00:52:54;;;;;;;23.27;20.52;;;16.70;99.90;;;;;;5053100;28;20025;-74
2022/05/24 00:55:22;;;;;;;24.65;22.05;;;16.70;99.90;;;;;;5052965;28;20021;-74
2022/05/24 00:58:09;;;;;;;28.45;23.73;;;16.70;99.90;;;;;;5052983;28;20018;-74
2022/05/24 01:00:35;;;;;;;25.73;20.83;;;16.70;99.90;;;;;;5052983;28;20079;-74
2022/05/24 01:03:00;;;;;;;27.77;21.98;;;16.60;99.90;;;;;;5052785;28;20021;-74
2022/05/24 01:05:29;;;;;;;28.60;23.80;;;16.60;99.90;;;;;;5052478;28;20033;-74
2022/05/24 01:07:55;;;;;;;28.10;21.92;;;16.60;99.90;;;;;;5053052;28;20047;-74
2022/05/24 01:10:38;;;;;;;25.77;22.73;;;16.60;99.90;;;;;;5052778;28;20482;-74
2022/05/24 01:13:10;;;;;;;26.27;20.88;;;16.50;99.90;;;;;;5053168;28;20032;-74
2022/05/24 01:15:36;;;;;;;27.90;21.50;;;16.50;99.90;;;;;;5056781;28;20036;-74
2022/05/24 01:18:03;;;;;;;29.38;23.15;;;16.50;99.90;;;;;;5057097;28;20016;-74
2022/05/24 01:20:29;;;;;;;26.58;21.40;;;16.40;99.80;;;;;;5056924;28;20040;-74
2022/05/24 01:23:20;;;;;;;29.55;21.13;;;16.40;99.90;;;;;;5057049;28;20040;-74
2022/05/24 01:25:58;;;;;;;25.67;20.75;;;16.40;99.80;;;;;;5053269;28;20033;-74
2022/05/24 01:28:31;;;;;;;26.30;20.75;;;16.30;99.70;;;;;;5056507;28;20029;-74
2022/05/24 01:30:58;;;;;;;25.23;21.13;;;16.30;99.70;;;;;;5056540;28;20465;-74
2022/05/24 01:36:09;;;;;;;27.80;21.83;;;16.30;99.60;;;;;;5056311;28;20094;-74
2022/05/24 01:38:35;;;;;;;29.75;21.90;;;16.30;99.80;;;;;;5056684;28;20021;-74
2022/05/24 01:41:02;;;;;;;29.15;23.00;;;16.30;99.50;;;;;;5056328;28;20029;-74
2022/05/24 01:43:29;;;;;;;27.90;23.65;;;16.30;99.30;;;;;;5056626;28;20032;-74
2022/05/24 01:46:04;;;;;;;28.95;23.67;;;16.30;99.40;;;;;;5056272;28;20029;-74
2022/05/24 01:48:38;;;;;;;33.83;25.10;;;16.30;99.40;;;;;;5055856;28;20496;-74
2022/05/24 01:51:06;;;;;;;27.98;24.13;;;16.30;99.40;;;;;;5056535;28;20441;-74
2022/05/24 01:53:37;;;;;;;32.25;26.45;;;16.30;99.30;;;;;;5056421;28;20438;-74
2022/05/24 01:56:07;;;;;;;32.95;25.75;;;16.30;99.30;;;;;;5056220;28;20082;-74
2022/05/24 01:58:35;;;;;;;32.88;27.75;;;16.30;99.30;;;;;;5056184;28;20388;-74
2022/05/24 02:01:30;;;;;;;34.30;25.55;;;16.30;99.30;;;;;;5056271;28;20381;-74
2022/05/24 02:04:00;;;;;;;35.30;26.30;;;16.30;99.50;;;;;;5052852;28;20029;-74
2022/05/24 02:06:27;;;;;;;32.13;25.23;;;16.30;99.30;;;;;;5055819;28;20021;-74
2022/05/24 02:08:54;;;;;;;29.80;25.55;;;16.30;99.40;;;;;;5055913;28;20037;-74
2022/05/24 02:11:26;;;;;;;31.15;24.48;;;16.30;99.50;;;;;;5055892;28;20091;-74
2022/05/24 02:13:58;;;;;;;28.90;23.50;;;16.30;99.40;;;;;;5056076;28;20028;-74
2022/05/24 02:16:28;;;;;;;30.80;23.13;;;16.20;99.30;;;;;;5055980;28;20389;-74
2022/05/24 02:18:54;;;;;;;25.05;20.38;;;16.20;99.40;;;;;;5055660;28;20025;-74
2022/05/24 02:21:21;;;;;;;26.70;20.13;;;16.10;99.40;;;;;;5055612;28;20112;-74
2022/05/24 02:23:49;;;;;;;23.67;20.00;;;16.10;99.40;;;;;;5054777;28;20032;-74
2022/05/24 02:26:17;;;;;;;23.27;18.08;;;16.10;99.40;;;;;;5055806;28;20025;-74
2022/05/24 02:28:43;;;;;;;20.92;16.40;;;16.10;99.30;;;;;;5055700;28;20025;-74
2022/05/24 02:31:12;;;;;;;21.63;15.18;;;16.10;99.10;;;;;;5055420;28;20024;-74
2022/05/24 02:33:38;;;;;;;19.98;13.57;;;15.90;98.80;;;;;;5055129;28;20025;-74
2022/05/24 02:36:05;;;;;;;17.30;13.65;;;15.80;99.00;;;;;;5055471;28;20461;-74
2022/05/24 02:38:31;;;;;;;19.40;11.73;;;15.80;99.00;;;;;;5055439;28;20025;-74
2022/05/24 02:43:41;;;;;;;15.88;10.27;;;15.70;98.70;;;;;;5055461;28;20075;-73
2022/05/24 02:46:07;;;;;;;17.85;10.65;;;15.70;98.60;;;;;;5055143;28;20029;-74
2022/05/24 02:48:34;;;;;;;16.65;10.10;;;15.60;98.60;;;;;;5054800;28;20064;-73
2022/05/24 02:51:00;;;;;;;14.65;9.82;;;15.60;98.80;;;;;;5055219;28;20025;-73
2022/05/24 02:53:25;;;;;;;16.75;9.77;;;15.60;98.90;;;;;;5054689;28;20074;-74
2022/05/24 02:55:51;;;;;;;14.77;9.02;;;15.60;98.80;;;;;;5055169;28;20032;-74
2022/05/24 02:58:17;;;;;;;19.88;8.55;;;15.60;98.70;;;;;;5054867;28;20052;-74
2022/05/24 03:00:44;;;;;;;13.45;8.20;;;15.50;98.70;;;;;;5055027;28;20051;-74
2022/05/24 03:03:10;;;;;;;15.45;7.55;;;15.50;98.70;;;;;;5054576;28;20032;-74
2022/05/24 03:05:35;;;;;;;11.38;7.30;;;15.40;98.60;;;;;;5055046;28;20029;-74
2022/05/24 03:10:45;;;;;;;12.55;6.95;;;15.40;98.60;;;;;;5055004;28;20036;-74
2022/05/24 03:15:55;;;;;;;13.38;5.93;;;15.40;98.40;;;;;;5054645;28;20063;-74
2022/05/24 03:18:22;;;;;;;11.32;6.45;;;15.40;98.40;;;;;;5054530;28;20376;-74
2022/05/24 03:20:48;;;;;;;12.00;6.57;;;15.50;98.60;;;;;;5054672;28;20131;-74
2022/05/24 03:23:14;;;;;;;9.32;5.10;;;15.40;98.10;;;;;;5054765;28;20056;-74
2022/05/24 03:25:40;;;;;;;11.95;5.07;;;15.30;98.10;;;;;;5054629;28;20031;-74
2022/05/24 03:28:07;;;;;;;12.73;5.82;;;15.20;98.10;;;;;;5054306;28;20032;-74
2022/05/24 03:30:39;;;;;;;13.57;5.63;;;15.20;98.10;;;;;;5054256;28;20044;-74
2022/05/24 03:33:05;;;;;;;11.77;4.90;;;15.20;98.10;;;;;;5054286;28;20032;-74
2022/05/24 03:35:30;;;;;;;12.10;5.82;;;15.20;98.20;;;;;;5053523;28;20037;-74
2022/05/24 03:37:56;;;;;;;9.20;4.90;;;15.20;98.40;;;;;;5054182;28;20025;-74
2022/05/24 03:40:21;;;;;;;10.27;5.03;;;15.20;98.40;;;;;;5054210;28;20488;-74
2022/05/24 03:42:47;;;;;;;10.73;4.88;;;15.10;98.30;;;;;;5054116;28;20021;-74
2022/05/24 03:45:13;;;;;;;11.27;5.07;;;15.10;98.60;;;;;;5054243;28;20031;-74
2022/05/24 03:47:39;;;;;;;10.98;4.60;;;15.10;98.50;;;;;;5053811;28;20049;-74
2022/05/24 03:50:07;;;;;;;11.63;5.15;;;15.10;98.50;;;;;;5054102;28;20028;-74
2022/05/24 03:52:33;;;;;;;8.73;4.97;;;15.20;98.50;;;;;;5053628;28;20055;-74
2022/05/24 03:54:59;;;;;;;8.68;4.82;;;15.20;98.50;;;;;;5054006;28;20496;-74
2022/05/24 04:00:10;;;;;;;11.95;4.30;;;15.00;98.50;;;;;;5054084;28;20063;-74
2022/05/24 04:02:35;;;;;;;13.55;4.30;;;15.10;98.70;;;;;;5053551;28;20449;-74
2022/05/24 04:05:01;;;;;;;8.55;4.13;;;15.10;98.60;;;;;;5053482;28;20104;-74
2022/05/24 04:07:27;;;;;;;13.27;4.95;;;15.10;98.60;;;;;;5053824;28;20065;-74
2022/05/24 04:09:52;;;;;;;8.77;4.10;;;15.10;98.60;;;;;;5053706;28;20021;-74
2022/05/24 04:12:18;;;;;;;12.57;4.68;;;15.10;98.50;;;;;;5053760;28;20074;-74
2022/05/24 04:14:43;;;;;;;12.75;4.15;;;15.10;98.50;;;;;;5053423;28;20388;-74
2022/05/24 04:17:09;;;;;;;11.48;4.10;;;15.10;98.60;;;;;;5053280;28;20017;-74
2022/05/24 04:19:34;;;;;;;13.40;4.75;;;15.10;98.40;;;;;;5053542;28;20055;-74
2022/05/24 04:22:00;;;;;;;10.65;4.65;;;15.10;98.40;;;;;;5053561;28;20358;-74
2022/05/24 04:24:26;;;;;;;14.35;5.10;;;15.10;98.40;;;;;;5053254;28;20025;-74
2022/05/24 04:26:51;;;;;;;12.43;5.38;;;15.10;98.30;;;;;;5053189;28;20044;-74
2022/05/24 04:29:17;;;;;;;12.88;5.00;;;15.10;98.40;;;;;;5053143;28;20021;-74
2022/05/24 04:31:43;;;;;;;9.13;4.75;;;15.00;98.40;;;;;;5053135;28;20021;-74
2022/05/24 04:34:08;;;;;;;14.15;5.82;;;15.00;98.40;;;;;;5053463;28;20025;-74
2022/05/24 04:36:34;;;;;;;9.77;5.45;;;15.00;98.30;;;;;;5053468;28;20020;-74
2022/05/24 04:39:00;;;;;;;11.48;5.78;;;15.00;98.30;;;;;;5053025;28;20078;-74
2022/05/24 04:44:10;;;;;;;9.25;4.97;;;14.90;98.40;;;;;;5053134;28;20040;-74
2022/05/24 04:49:22;;;;;;;13.15;6.05;;;14.90;98.60;;;;;;5053139;28;20040;-74
2022/05/24 04:51:48;;;;;;;12.95;5.88;;;14.90;98.50;;;;;;5053130;28;20024;-74
2022/05/24 04:54:13;;;;;;;12.10;5.57;;;14.90;98.40;;;;;;5052993;28;20108;-74
2022/05/24 04:56:39;;;;;;;14.77;6.13;;;14.90;98.40;;;;;;5052699;28;20032;-74
2022/05/24 04:59:04;;;;;;;11.55;5.85;;;14.90;98.40;;;;;;5053223;28;20021;-74
2022/05/24 05:01:30;;;;;;;15.57;6.38;;;14.90;98.40;;;;;;5053088;28;20479;-74
2022/05/24 05:03:56;;;;;;;9.90;5.65;;;14.90;98.50;;;;;;5052889;28;20116;-74
2022/05/24 05:06:21;;;;;;;15.38;5.82;;;14.90;98.60;;;;;;5052728;28;20111;-74
2022/05/24 05:08:47;;;;;;;12.77;6.18;;;14.90;98.70;;;;;;5052605;28;20033;-74
2022/05/24 05:11:12;;;;;;;12.23;5.97;;;14.90;98.50;;;;;;5053079;28;20374;-74
2022/05/24 05:13:38;;;;;;;12.88;5.93;;;14.90;98.40;;;;;;5052900;28;20401;-74
2022/05/24 05:16:04;;;;;;;15.20;6.88;;;15.00;98.50;;;;;;5052866;28;20048;-74
2022/05/24 05:18:30;;;;;;;16.45;6.85;;;15.00;98.40;;;;;;5052880;28;20039;-74
2022/05/24 05:20:55;;;;;;;16.05;6.63;;;15.00;98.60;;;;;;5052600;28;20509;-74
2022/05/24 05:23:21;;;;;;;13.00;6.75;;;15.00;98.70;;;;;;5052945;28;20083;-74
2022/05/24 05:25:47;;;;;;;12.70;6.85;;;15.00;98.60;;;;;;5052639;28;20358;-74
2022/05/24 05:28:14;;;;;;;14.10;7.88;;;15.00;98.60;;;;;;5052584;28;20119;-74
2022/05/24 05:33:24;;;;;;;17.85;8.10;;;14.90;98.80;;;;;;5052692;28;20116;-74
2022/05/24 05:35:50;;;;;;;14.52;8.00;;;14.90;98.80;;;;;;5052632;28;20100;-74
2022/05/24 05:38:16;;;;;;;15.25;8.07;;;14.80;98.80;;;;;;5052538;28;20067;-74
2022/05/24 05:40:42;;;;;;;15.02;8.30;;;14.80;99.00;;;;;;5052327;28;20116;-74
2022/05/24 05:43:08;;;;;;;16.52;8.57;;;14.70;98.90;;;;;;5052696;28;20060;-74
2022/05/24 05:45:34;;;;;;;13.82;6.95;;;14.70;98.90;;;;;;5052724;28;20100;-74
2022/05/24 05:47:59;;;;;;;15.00;8.30;;;14.70;99.00;;;;;;5052005;28;20560;-74
2022/05/24 05:50:25;;;;;;;14.23;8.20;;;14.80;98.90;;;;;;5052633;28;20108;-74
2022/05/24 05:52:51;;;;;;;12.63;7.28;;;14.80;98.80;;;;;;5052314;28;20090;-74
2022/05/24 05:55:19;;;;;;;16.42;7.63;;;14.70;98.90;;;;;;5052366;28;20029;-74
2022/05/24 05:57:45;;;;;;;14.85;8.25;;;14.80;99.00;;;;;;5052303;28;20025;-74
2022/05/24 06:00:11;;;;;;;14.40;8.07;;;14.70;98.70;;;;;;5054251;28;20025;-74
2022/05/24 06:02:37;;;;;;;13.48;9.05;;;14.70;98.60;;;;;;5055762;28;20036;-74
2022/05/24 06:05:04;;;;;;;15.02;8.82;;;14.70;98.60;;;;;;5055865;28;20158;-74
2022/05/24 06:07:30;;;;;;;19.10;10.02;;;14.70;98.60;;;;;;5055555;28;20120;-74
2022/05/24 06:09:56;;;;;;;14.25;9.07;;;14.70;98.70;;;;;;5055745;28;20032;-74
2022/05/24 06:12:22;;;;;;;14.25;9.20;;;14.70;99.00;;;;;;5055576;28;20021;-74
2022/05/24 06:14:47;;;;;;;13.02;8.40;;;14.70;98.70;;;;;;5055781;28;20464;-74
2022/05/24 06:17:13;;;;;;;16.05;8.20;;;14.60;98.50;;;;;;5055534;28;20017;-74
2022/05/24 06:19:38;;;;;;;15.80;8.43;;;14.60;98.60;;;;;;5055865;28;20045;-74
2022/05/24 06:22:05;;;;;;;14.68;8.27;;;14.70;98.70;;;;;;5055158;28;20461;-74
2022/05/24 06:24:30;;;;;;;15.52;8.38;;;14.70;98.60;;;;;;5055377;28;20029;-74
2022/05/24 06:26:56;;;;;;;12.93;8.40;;;14.80;98.90;;;;;;5055291;28;20032;-74
2022/05/24 06:29:23;;;;;;;14.50;8.40;;;14.80;98.70;;;;;;5055561;28;20033;-74
2022/05/24 06:31:48;;;;;;;13.43;8.48;;;14.90;98.50;;;;;;5055366;28;20032;-74
2022/05/24 06:34:14;;;;;;;14.55;8.32;;;14.90;98.40;;;;;;5055298;28;20025;-74
2022/05/24 06:36:40;;;;;;;13.95;8.27;;;14.80;98.40;;;;;;5055161;28;20103;-74
2022/05/24 06:39:05;;;;;;;17.52;8.43;;;14.90;98.40;;;;;;5055248;28;20059;-74
2022/05/24 06:41:31;;;;;;;15.35;7.95;;;14.90;98.40;;;;;;5055403;28;20028;-74
2022/05/24 06:43:56;;;;;;;13.15;7.38;;;14.90;98.40;;;;;;5055214;28;20392;-73
2022/05/24 06:46:22;;;;;;;13.30;7.05;;;14.90;98.10;;;;;;5054941;28;20028;-73
2022/05/24 06:48:48;;;;;;;10.57;7.28;;;14.80;97.90;;;;;;5054958;28;20025;-73
2022/05/24 06:51:17;;;;;;;13.25;6.80;;;14.80;98.10;;;;;;5054665;28;20028;-74
2022/05/24 06:53:44;;;;;;;10.27;6.90;;;14.80;98.10;;;;;;5055085;28;20029;-74
2022/05/24 06:56:10;;;;;;;8.60;6.85;;;14.80;98.20;;;;;;5055173;28;20154;-74
2022/05/24 06:58:37;;;;;;;14.00;7.07;;;14.80;97.80;;;;;;5054838;28;20108;-74
2022/05/24 07:03:51;;;;;;;14.43;7.18;;;14.70;97.60;;;;;;5054566;28;20456;-73
2022/05/24 07:06:16;;;;;;;12.88;7.63;;;14.70;97.60;;;;;;5054863;28;20048;-74
2022/05/24 07:08:46;;;;;;;12.82;7.88;;;14.70;97.60;;;;;;5054146;28;20384;-74
2022/05/24 07:11:14;;;;;;;11.40;7.40;;;14.70;97.60;;;;;;5054718;28;20086;-73
2022/05/24 07:13:39;;;;;;;10.63;7.88;;;14.80;97.80;;;;;;5054744;28;20078;-73
2022/05/24 07:16:08;;;;;;;15.05;8.55;;;14.80;97.70;;;;;;5054546;28;20029;-73
2022/05/24 07:18:35;;;;;;;12.05;8.77;;;14.90;97.30;;;;;;5054405;28;20020;-73
2022/05/24 07:21:00;;;;;;;12.65;8.23;;;14.90;97.30;;;;;;5054604;28;20120;-73
2022/05/24 07:23:27;;;;;;;13.05;8.25;;;14.90;97.20;;;;;;5054200;28;20475;-73
2022/05/24 07:25:54;;;;;;;12.32;8.45;;;14.90;97.10;;;;;;5054309;28;20457;-73
2022/05/24 07:28:22;;;;;;;11.23;7.97;;;15.00;97.20;;;;;;5054472;28;20033;-73
2022/05/24 07:30:49;;;;;;;14.23;8.70;;;15.00;97.00;;;;;;5054183;28;20024;-73
2022/05/24 07:33:16;;;;;;;11.48;7.43;;;15.00;96.80;;;;;;5054187;28;20031;-73
2022/05/24 07:35:42;;;;;;;13.40;8.00;;;15.10;96.90;;;;;;5053830;28;20384;-73
2022/05/24 07:38:09;;;;;;;8.73;7.20;;;15.10;96.90;;;;;;5054165;28;20029;-73
2022/05/24 07:46:10;;;;;;;7.60;5.70;;;15.30;96.20;;;;;;5054367;28;20031;-73
2022/05/24 07:48:36;;;;;;;9.20;6.10;;;15.30;96.60;;;;;;5053659;28;20041;-74
2022/05/24 07:51:03;;;;;;;8.30;5.38;;;15.30;96.50;;;;;;5053937;28;20023;-74
2022/05/24 07:53:28;;;;;;;8.02;3.58;;;15.30;96.30;;;;;;5053966;28;20082;-74
2022/05/24 07:55:55;;;;;;;10.65;3.78;;;15.30;95.80;;;;;;5053707;28;20021;-74
2022/05/24 07:58:21;;;;;;;8.93;4.10;;;15.30;95.50;;;;;;5053725;28;20029;-74
2022/05/24 08:00:47;;;;;;;8.30;3.40;;;15.30;95.40;;;;;;5053607;28;20032;-74
2022/05/24 08:03:14;;;;;;;9.75;3.88;;;15.50;95.50;;;;;;5053907;28;20022;-74
2022/05/24 08:05:40;;;;;;;5.55;2.97;;;15.60;94.90;;;;;;5053864;28;20086;-74
2022/05/24 08:08:08;;;;;;;5.38;3.00;;;15.70;94.70;;;;;;5053519;28;20545;-74
2022/05/24 08:10:35;;;;;;;5.78;2.70;;;15.80;94.80;;;;;;5053279;28;20025;-74
2022/05/24 08:13:05;;;;;;;8.15;2.20;;;15.90;93.90;;;;;;5053805;28;20052;-75
2022/05/24 08:15:31;;;;;;;5.60;2.83;;;15.90;92.80;;;;;;5053389;28;20017;-75
2022/05/24 08:17:57;;;;;;;4.47;2.03;;;15.90;92.60;;;;;;5053365;28;20380;-75
2022/05/24 08:20:23;;;;;;;6.03;2.28;;;15.80;92.40;;;;;;5052955;28;20468;-75
2022/05/24 08:22:49;;;;;;;6.15;2.75;;;15.80;92.50;;;;;;5052904;28;20033;-75
2022/05/24 08:25:15;;;;;;;5.43;3.05;;;15.70;92.60;;;;;;5053528;28;20021;-75
2022/05/24 08:27:41;;;;;;;6.07;2.70;;;15.80;92.80;;;;;;5053210;28;20036;-75
2022/05/24 08:30:09;;;;;;;4.85;2.20;;;15.90;93.00;;;;;;5053483;28;20021;-75
2022/05/24 08:32:34;;;;;;;3.70;2.20;;;16.00;91.90;;;;;;5053192;28;20132;-74
2022/05/24 08:35:01;;;;;;;4.00;1.73;;;16.10;92.10;;;;;;5053087;28;20503;-75
2022/05/24 08:37:27;;;;;;;6.18;0.77;;;16.20;92.60;;;;;;5053058;28;20025;-75
2022/05/24 08:39:57;;;;;;;2.97;0.85;;;16.40;91.60;;;;;;5053284;28;20036;-75
2022/05/24 08:42:35;;;;;;;2.58;0.63;;;16.50;91.20;;;;;;5053225;28;20025;-75
2022/05/24 08:48:28;;;;;;;4.82;0.90;;;16.40;90.90;;;;;;5052437;28;20141;-75
2022/05/24 08:51:15;;;;;;;5.07;1.02;;;16.30;91.10;;;;;;5052679;28;20048;-75
2022/05/24 08:53:47;;;;;;;4.55;1.02;;;16.30;91.50;;;;;;5052913;28;20471;-75
2022/05/24 08:56:18;;;;;;;4.75;1.15;;;16.20;91.50;;;;;;5052766;28;20031;-75
2022/05/24 08:58:51;;;;;;;5.93;1.35;;;16.10;91.90;;;;;;5052940;28;20064;-75
2022/05/24 09:01:25;;;;;;;6.30;1.38;;;16.00;92.50;;;;;;5053028;28;20047;-75
2022/05/24 09:03:51;;;;;;;4.47;1.27;;;16.00;92.40;;;;;;5053271;28;20025;-75
2022/05/24 09:06:24;;;;;;;8.68;1.67;;;15.80;92.40;;;;;;5053027;28;20032;-75
2022/05/24 09:09:22;;;;;;;;;;;15.80;93.20;;;;;;5052823;28;20037;-75
2022/05/24 09:11:56;;;;;;;6.03;1.50;;;15.70;94.10;;;;;;5040835;28;19979;-75
2022/05/24 09:14:33;;;;;;;6.60;1.70;;;15.70;94.60;;;;;;5052738;28;20056;-75
2022/05/24 09:17:27;;;;;;;5.55;1.60;;;15.80;94.90;;;;;;5052631;28;20473;-75
2022/05/24 09:19:53;;;;;;;4.30;1.00;;;15.70;94.30;;;;;;5052809;28;20210;-75
2022/05/24 09:22:21;;;;;;;3.75;0.65;;;15.70;94.30;;;;;;5052882;28;20495;-75
2022/05/24 09:24:58;;;;;;;4.68;0.70;;;15.70;93.90;;;;;;5052762;28;20051;-75
2022/05/24 09:27:26;;;;;;;8.10;0.98;;;15.70;93.50;;;;;;5052588;28;20108;-75
2022/05/24 09:29:52;;;;;;;6.97;0.90;;;15.80;93.30;;;;;;5052826;28;20155;-75
2022/05/24 09:32:18;;;;;;;5.13;0.75;;;15.80;93.40;;;;;;5052744;28;20021;-75
2022/05/24 09:34:44;;;;;;;4.03;1.02;;;15.80;93.80;;;;;;5053995;28;20025;-75
2022/05/24 09:37:22;;;;;;;3.47;1.38;;;15.80;93.30;;;;;;5056406;28;20029;-75
2022/05/24 09:40:00;;;;;;;6.18;1.50;;;15.80;93.90;;;;;;5056568;28;20097;-75
2022/05/24 09:42:33;;;;;;;5.07;1.75;;;15.90;94.20;;;;;;5056025;28;20369;-75
2022/05/24 09:45:23;;;;;;;;;;;15.90;94.10;;;;;;5056498;28;20040;-75
2022/05/24 09:47:49;;;;;;;4.78;1.80;;;16.00;94.00;;;;;;5055411;28;19952;-75
2022/05/24 09:50:37;;;;;;;5.70;1.80;;;16.00;93.60;;;;;;5055872;28;20028;-75
2022/05/24 09:53:02;;;;;;;4.07;1.40;;;16.00;93.60;;;;;;5055889;28;20029;-75
2022/05/24 09:55:42;;;;;;;4.13;1.50;;;16.00;93.00;;;;;;5055723;28;20066;-75
2022/05/24 09:58:23;;;;;;;6.15;1.48;;;16.10;93.30;;;;;;5056302;28;20049;-75
2022/05/24 10:00:51;;;;;;;4.40;1.25;;;16.10;93.20;;;;;;5056186;28;20025;-75
2022/05/24 10:03:22;;;;;;;4.80;1.08;;;16.10;93.00;;;;;;5056071;28;20028;-75
2022/05/24 10:05:58;;;;;;;4.70;1.23;;;16.30;93.50;;;;;;5055919;28;20033;-75
2022/05/24 10:08:23;;;;;;;4.38;0.88;;;16.40;92.70;;;;;;5055943;28;20063;-75
2022/05/24 10:10:56;;;;;;;4.22;0.85;;;16.50;92.60;;;;;;5055879;28;20429;-75
2022/05/24 10:13:46;;;;;;;;;;;16.60;92.10;;;;;;5056170;28;20021;-75
2022/05/24 10:16:35;;;;;;;2.65;1.05;;;16.70;92.40;;;;;;5055705;28;19905;-75
2022/05/24 10:19:00;;;;;;;4.70;0.40;;;16.80;91.40;;;;;;5055799;28;20033;-75
2022/05/24 10:22:12;;;;;;;1.85;0.30;;;16.90;91.40;;;;;;5055388;28;20365;-75
2022/05/24 10:24:55;;;;;;;2.03;0.52;;;16.80;90.80;;;;;;5055209;28;20024;-75
2022/05/24 10:27:42;;;;;;;3.28;0.90;;;16.60;91.70;;;;;;5055585;28;20033;-75
2022/05/24 10:30:19;;;;;;;1.20;0.47;;;16.50;92.40;;;;;;5055474;28;20025;-75
2022/05/24 10:39:20;;;;;;;2.33;0.95;;;16.10;94.10;;;;;;5055260;28;20496;-75
2022/05/24 10:42:01;;;;;;;2.60;1.00;;;16.20;94.60;;;;;;5055192;28;20500;-75
2022/05/24 10:44:50;;;;;;;5.35;1.10;;;16.50;94.40;;;;;;5055083;28;20119;-74
2022/05/24 10:47:39;;;;;;;2.75;1.10;;;16.90;94.20;;;;;;5054730;28;20049;-75
2022/05/24 10:50:09;;;;;;;2.60;0.50;;;16.90;92.50;;;;;;5055068;28;20021;-75
2022/05/24 10:52:52;;;;;;;3.92;0.40;;;16.70;92.50;;;;;;5055093;28;20520;-75
2022/05/24 10:55:26;;;;;;;3.40;0.40;;;16.50;93.10;;;;;;5055282;28;20496;-74
2022/05/24 10:58:15;;;;;;;2.67;1.20;;;16.40;94.40;;;;;;5055294;28;20051;-75
2022/05/24 11:00:53;;;;;;;2.33;0.50;;;16.50;95.00;;;;;;5054773;28;20091;-74
2022/05/24 11:03:29;;;;;;;1.00;0.40;;;16.80;95.10;;;;;;5054775;28;20032;-75
2022/05/24 11:06:15;;;;;;;0.68;0.20;;;16.80;93.70;;;;;;5054895;28;20021;-75
2022/05/24 11:08:49;;;;;;;1.13;0.22;;;16.90;94.00;;;;;;5054554;28;20033;-74
2022/05/24 11:11:48;;;;;;;16.85;1.98;;;16.90;92.80;;;;;;5054684;28;20025;-74
2022/05/24 11:14:39;;;;;;;4.18;0.50;;;16.90;92.80;;;;;;5054602;28;20032;-75
2022/05/24 11:17:05;;;;;;;1.75;0.43;;;16.70;92.40;;;;;;5053898;28;20560;-75
2022/05/24 11:19:39;;;;;;;2.30;0.47;;;16.70;92.60;;;;;;5054309;28;20025;-75
2022/05/24 11:22:10;;;;;;;3.85;0.40;;;16.70;92.60;;;;;;5054562;28;20033;-75
2022/05/24 11:24:47;;;;;;;5.55;0.70;;;16.70;92.30;;;;;;5054549;28;20029;-75
2022/05/24 11:27:22;;;;;;;1.40;0.40;;;16.60;92.40;;;;;;5054426;28;20029;-74
2022/05/24 11:30:37;;;;;;;1.58;0.25;;;16.60;92.70;;;;;;5052946;28;20025;-74
2022/05/24 11:33:02;;;;;;;1.80;0.25;;;16.50;92.80;;;;;;5051904;28;20032;-74
2022/05/24 11:35:35;;;;;;;2.72;0.20;;;16.40;92.90;;;;;;5054416;28;20024;-75
2022/05/24 11:38:36;;;;;;;2.45;0.25;;;16.40;92.20;;;;;;5054121;28;20377;-75
2022/05/24 11:41:17;;;;;;;3.83;0.25;;;16.20;91.80;;;;;;5054305;28;20120;-74
2022/05/24 11:43:43;;;;;;;2.92;0.38;;;16.20;91.50;;;;;;5054044;28;20465;-74
2022/05/24 11:46:33;;;;;;;1.25;0.20;;;16.10;91.60;;;;;;5054280;28;20090;-74
2022/05/24 11:49:04;;;;;;;2.45;0.20;;;16.10;91.60;;;;;;5053956;28;20041;-74
2022/05/24 11:51:39;;;;;;;2.20;0.22;;;16.20;91.50;;;;;;5054118;28;20017;-74
2022/05/24 11:54:29;;;;;;;1.13;0.10;;;16.10;91.20;;;;;;5053868;28;20033;-74
2022/05/24 11:57:00;;;;;;;0.80;0.10;;;16.10;91.20;;;;;;5053230;28;20025;-74
2022/05/24 11:59:43;;;;;;;1.95;0.25;;;16.10;92.00;;;;;;5054034;28;20032;-74
2022/05/24 12:02:29;;;;;;;1.27;0.20;;;16.10;92.30;;;;;;5053701;28;20083;-74
2022/05/24 12:07:56;;;;;;;2.63;0.20;;;16.10;91.90;;;;;;5053206;28;20047;-74
2022/05/24 12:10:21;;;;;;;0.80;0.20;;;16.40;92.10;;;;;;5054012;28;20021;-74
2022/05/24 12:12:50;;;;;;;2.05;0.10;;;16.80;92.20;;;;;;5053813;28;20031;-74
2022/05/24 12:15:21;;;;;;;1.17;0.30;;;17.20;91.90;;;;;;5053548;28;20472;-74
2022/05/24 12:18:07;;;;;;;4.13;0.20;;;17.50;90.60;;;;;;5053200;28;20051;-74
2022/05/24 12:20:35;;;;;;;2.15;0.30;;;17.70;88.80;;;;;;5049223;28;20029;-74
2022/05/24 12:23:07;;;;;;;3.80;0.45;;;17.90;88.30;;;;;;5053409;28;20021;-74
2022/05/24 12:26:02;;;;;;;3.80;0.40;;;18.10;88.40;;;;;;5053639;28;20025;-74
2022/05/24 12:28:43;;;;;;;1.75;0.20;;;18.30;87.30;;;;;;5053100;28;20095;-74
2022/05/24 12:31:18;;;;;;;1.33;0.30;;;18.50;86.90;;;;;;5053107;28;20049;-74
2022/05/24 12:33:54;;;;;;;2.15;0.38;;;18.50;86.60;;;;;;5053344;28;20032;-74
2022/05/24 12:36:28;;;;;;;1.55;0.20;;;18.40;86.10;;;;;;5053091;28;20403;-74
2022/05/24 12:39:03;;;;;;;3.40;0.40;;;18.20;85.70;;;;;;5053132;28;20099;-75
2022/05/24 12:41:38;;;;;;;2.75;0.40;;;17.90;86.30;;;;;;5053532;28;20036;-75
2022/05/24 12:44:11;;;;;;;2.00;0.30;;;17.80;88.60;;;;;;5053054;28;20104;-75
2022/05/24 12:46:37;;;;;;;1.75;0.40;;;17.90;90.60;;;;;;5053125;28;20044;-75
2022/05/24 12:49:16;;;;;;;1.13;0.30;;;18.10;91.30;;;;;;5052831;28;20629;-75
2022/05/24 12:51:42;;;;;;;1.30;0.15;;;18.30;91.20;;;;;;5053350;28;20419;-75
2022/05/24 12:54:25;;;;;;;0.75;0.13;;;18.40;88.20;;;;;;5053148;28;20071;-75
2022/05/24 12:57:16;;;;;;;1.80;0.10;;;18.40;84.90;;;;;;5052953;28;20091;-75
2022/05/24 12:59:50;;;;;;;0.73;0.10;;;18.40;87.60;;;;;;5042583;28;20099;-75
2022/05/24 13:02:34;;;;;;;1.23;0.10;;;18.50;83.90;;;;;;5052976;28;20021;-75
2022/05/24 13:05:08;;;;;;;3.25;0.17;;;18.70;81.20;;;;;;5052786;28;20035;-74
2022/05/24 13:07:37;;;;;;;0.93;0.10;;;18.80;80.80;;;;;;5052748;28;20508;-75
2022/05/24 13:10:18;;;;;;;0.77;0.10;;;19.00;81.10;;;;;;5056673;28;20029;-75
2022/05/24 13:12:45;;;;;;;0.60;0.10;;;19.10;79.50;;;;;;5057215;28;20344;-75
2022/05/24 13:15:16;;;;;;;2.25;0.10;;;19.20;78.00;;;;;;5056629;28;20041;-75
2022/05/24 13:17:45;;;;;;;4.18;0.20;;;19.30;77.90;;;;;;5056854;28;20112;-75
2022/05/24 13:20:17;;;;;;;1.40;0.10;;;19.30;77.50;;;;;;5057006;28;20033;-75
2022/05/24 13:22:53;;;;;;;1.42;0.20;;;19.40;78.10;;;;;;5056573;28;20017;-75
2022/05/24 13:25:25;;;;;;;1.63;0.40;;;19.50;77.90;;;;;;5056600;28;20068;-75
2022/05/24 13:28:03;;;;;;;1.98;0.30;;;19.50;77.20;;;;;;5056665;28;20044;-75
2022/05/24 13:33:48;;;;;;;2.30;0.30;;;19.40;75.40;;;;;;5056622;28;20043;-75
2022/05/24 13:36:15;;;;;;;3.80;0.30;;;19.10;73.60;;;;;;5056704;28;20052;-75
2022/05/24 13:38:43;;;;;;;1.52;0.20;;;18.80;74.20;;;;;;5056416;28;20069;-75
2022/05/24 13:41:10;;;;;;;1.23;0.25;;;18.60;76.00;;;;;;5055960;28;20032;-75
2022/05/24 13:43:44;;;;;;;1.45;0.30;;;18.50;77.70;;;;;;5056658;28;20025;-75